KDAY

James M Cox Dayton International Airport

Dayton, Ohio, USA
KDAY 221125Z 2212/2312 04007KT P6SM SCT035 BKN200 FM221700 05008KT P6SM BKN250 FM222300 07005KT P6SM SCT250
Issued Valid From Valid To
Sep-22 @ 11:25 UTC
(4 hours ago)
Sep-22 @ 12:00 UTC
(3 hours ago)
Sep-23 @ 12:00 UTC
(in 21 hours)
to
to
to
KDAY 221125Z 2212/2312 04007KT P6SM SCT035 BKN200 FM221700 05008KT P6SM BKN250 FM222300 07005KT P6SM SCT250
Issued Sep-22 @ 11:25 UTC
(4 hours ago)
Valid From Sep-22 @ 12:00 UTC
(3 hours ago)
Valid To Sep-23 @ 12:00 UTC
(in 21 hours)
-
-
-